AUA729 LOWW-LQSA
Flight info
| Callsign | AUA729 |
|---|---|
| Flight time | 0h 45m |
| Altitude | 35000 |
| Route | STEIN DCT NOHAT DCT KOPRY DCT LURID DCT BOSNA |
| Aircraft | A320/M-SDE3FGHIRWY/LB1 |
Departure
| Time | 2026-05-05 07:37 |
|---|---|
| Airport | Vienna International Airport (LOWW) |
Arrival
| Time | 2026-05-05 08:23 |
|---|---|
| Airport | Sarajevo International Airport (LQSA) |
| Time | Latitude | Longitude | Altitude | Speed | Heading |
|---|---|---|---|---|---|
| 2026-05-05 07:16 | 48.11590 | 16.56632 | 610 ft | 0 kts | 206° |
| 2026-05-05 07:33 | 48.11588 | 16.56631 | 610 ft | 2 kts | 206° |
| 2026-05-05 07:34 | 48.11557 | 16.56608 | 620 ft | 5 kts | 205° |
| 2026-05-05 07:34 | 48.11510 | 16.56634 | 615 ft | 11 kts | 122° |
| 2026-05-05 07:34 | 48.11471 | 16.56749 | 625 ft | 14 kts | 116° |
| 2026-05-05 07:34 | 48.11426 | 16.56890 | 620 ft | 16 kts | 116° |
| 2026-05-05 07:35 | 48.11374 | 16.57049 | 620 ft | 18 kts | 116° |
| 2026-05-05 07:35 | 48.11317 | 16.57226 | 613 ft | 20 kts | 116° |
| 2026-05-05 07:35 | 48.11253 | 16.57419 | 619 ft | 22 kts | 116° |
| 2026-05-05 07:35 | 48.11185 | 16.57628 | 617 ft | 23 kts | 116° |
| 2026-05-05 07:36 | 48.11113 | 16.57845 | 610 ft | 24 kts | 116° |
| 2026-05-05 07:36 | 48.11041 | 16.58068 | 611 ft | 24 kts | 114° |
| 2026-05-05 07:36 | 48.10956 | 16.58245 | 620 ft | 14 kts | 139° |
| 2026-05-05 07:36 | 48.10929 | 16.58262 | 611 ft | 3 kts | 165° |
| 2026-05-05 07:37 | 48.10733 | 16.58346 | 619 ft | 68 kts | 164° |
| 2026-05-05 07:37 | 48.10046 | 16.58637 | 618 ft | 134 kts | 163° |
| 2026-05-05 07:37 | 48.09025 | 16.59077 | 962 ft | 158 kts | 161° |
| 2026-05-05 07:37 | 48.07998 | 16.59525 | 1873 ft | 153 kts | 167° |
| 2026-05-05 07:38 | 48.06968 | 16.59959 | 2661 ft | 159 kts | 169° |
| 2026-05-05 07:38 | 48.05829 | 16.60429 | 3118 ft | 180 kts | 169° |
| 2026-05-05 07:38 | 48.04534 | 16.60961 | 3547 ft | 206 kts | 169° |
| 2026-05-05 07:38 | 48.03074 | 16.61564 | 4110 ft | 230 kts | 168° |
| 2026-05-05 07:39 | 48.01449 | 16.62243 | 4795 ft | 251 kts | 167° |
| 2026-05-05 07:39 | 47.99743 | 16.62967 | 5716 ft | 258 kts | 167° |
| 2026-05-05 07:39 | 47.97965 | 16.63378 | 6708 ft | 260 kts | 182° |
| 2026-05-05 07:39 | 47.96150 | 16.63289 | 7671 ft | 263 kts | 184° |
| 2026-05-05 07:40 | 47.94302 | 16.63170 | 8658 ft | 268 kts | 184° |
| 2026-05-05 07:40 | 47.92424 | 16.63050 | 9648 ft | 272 kts | 184° |
| 2026-05-05 07:40 | 47.90502 | 16.62929 | 10417 ft | 285 kts | 184° |
| 2026-05-05 07:40 | 47.88438 | 16.62798 | 10809 ft | 308 kts | 184° |
| 2026-05-05 07:41 | 47.86249 | 16.62658 | 11472 ft | 319 kts | 183° |
| 2026-05-05 07:41 | 47.84017 | 16.62516 | 12381 ft | 322 kts | 183° |
| 2026-05-05 07:41 | 47.81769 | 16.62375 | 13272 ft | 325 kts | 183° |
| 2026-05-05 07:41 | 47.79499 | 16.62238 | 14087 ft | 328 kts | 183° |
| 2026-05-05 07:42 | 47.77206 | 16.62102 | 14847 ft | 332 kts | 183° |
| 2026-05-05 07:42 | 47.74884 | 16.61963 | 15588 ft | 336 kts | 183° |
| 2026-05-05 07:42 | 47.72538 | 16.61816 | 16331 ft | 340 kts | 183° |
| 2026-05-05 07:42 | 47.70158 | 16.61666 | 17068 ft | 344 kts | 183° |
| 2026-05-05 07:43 | 47.67754 | 16.61514 | 17786 ft | 348 kts | 183° |
| 2026-05-05 07:43 | 47.65320 | 16.61359 | 18444 ft | 352 kts | 183° |
| 2026-05-05 07:43 | 47.62855 | 16.61207 | 19055 ft | 356 kts | 183° |
| 2026-05-05 07:43 | 47.60363 | 16.61052 | 19649 ft | 361 kts | 183° |
| 2026-05-05 07:44 | 47.57837 | 16.60893 | 20220 ft | 366 kts | 184° |
| 2026-05-05 07:44 | 47.55282 | 16.60733 | 20830 ft | 369 kts | 184° |
| 2026-05-05 07:44 | 47.52705 | 16.60573 | 21394 ft | 373 kts | 184° |
| 2026-05-05 07:44 | 47.50098 | 16.60412 | 21991 ft | 376 kts | 184° |
| 2026-05-05 07:45 | 47.47465 | 16.60250 | 22548 ft | 381 kts | 184° |
| 2026-05-05 07:45 | 47.44800 | 16.60087 | 23053 ft | 386 kts | 184° |
| 2026-05-05 07:45 | 47.42102 | 16.59942 | 23579 ft | 390 kts | 183° |
| 2026-05-05 07:45 | 47.39371 | 16.59937 | 24028 ft | 394 kts | 181° |
| 2026-05-05 07:46 | 47.36617 | 16.60051 | 24495 ft | 398 kts | 180° |
| 2026-05-05 07:46 | 47.33842 | 16.60225 | 24994 ft | 400 kts | 179° |
| 2026-05-05 07:46 | 47.31056 | 16.60412 | 25452 ft | 402 kts | 180° |
| 2026-05-05 07:46 | 47.28251 | 16.60582 | 25939 ft | 404 kts | 180° |
| 2026-05-05 07:47 | 47.25434 | 16.60734 | 26389 ft | 407 kts | 180° |
| 2026-05-05 07:47 | 47.22591 | 16.60868 | 26807 ft | 410 kts | 180° |
| 2026-05-05 07:47 | 47.19723 | 16.60993 | 27188 ft | 415 kts | 180° |
| 2026-05-05 07:47 | 47.16823 | 16.61110 | 27564 ft | 419 kts | 180° |
| 2026-05-05 07:48 | 47.13897 | 16.61225 | 27968 ft | 422 kts | 180° |
| 2026-05-05 07:48 | 47.10956 | 16.61340 | 28398 ft | 425 kts | 180° |
| 2026-05-05 07:48 | 47.07991 | 16.61465 | 28823 ft | 427 kts | 180° |
| 2026-05-05 07:48 | 47.05010 | 16.61600 | 29243 ft | 430 kts | 180° |
| 2026-05-05 07:49 | 47.02010 | 16.61738 | 29643 ft | 433 kts | 180° |
| 2026-05-05 07:49 | 46.98994 | 16.61877 | 30037 ft | 435 kts | 180° |
| 2026-05-05 07:49 | 46.95958 | 16.62011 | 30358 ft | 437 kts | 180° |
| 2026-05-05 07:49 | 46.92913 | 16.62138 | 30696 ft | 439 kts | 180° |
| 2026-05-05 07:50 | 46.89849 | 16.62262 | 31002 ft | 441 kts | 180° |
| 2026-05-05 07:50 | 46.86773 | 16.62389 | 31330 ft | 443 kts | 180° |
| 2026-05-05 07:50 | 46.83686 | 16.62558 | 31626 ft | 446 kts | 177° |
| 2026-05-05 07:50 | 46.80610 | 16.63291 | 32006 ft | 449 kts | 168° |
| 2026-05-05 07:51 | 46.77634 | 16.64718 | 32414 ft | 452 kts | 160° |
| 2026-05-05 07:51 | 46.74721 | 16.66455 | 32743 ft | 453 kts | 160° |
| 2026-05-05 07:51 | 46.71802 | 16.68189 | 33127 ft | 453 kts | 160° |
| 2026-05-05 07:51 | 46.68881 | 16.69919 | 33548 ft | 453 kts | 160° |
| 2026-05-05 07:52 | 46.65960 | 16.71644 | 33969 ft | 452 kts | 160° |
| 2026-05-05 07:52 | 46.63047 | 16.73362 | 34358 ft | 451 kts | 160° |
| 2026-05-05 07:52 | 46.60142 | 16.75080 | 34733 ft | 451 kts | 160° |
| 2026-05-05 07:52 | 46.57232 | 16.76801 | 34943 ft | 451 kts | 160° |
| 2026-05-05 07:53 | 46.51480 | 16.80199 | 34992 ft | 444 kts | 160° |
| 2026-05-05 07:53 | 46.45770 | 16.83556 | 35007 ft | 442 kts | 160° |
| 2026-05-05 07:54 | 46.40063 | 16.86894 | 35003 ft | 442 kts | 160° |
| 2026-05-05 07:54 | 46.34358 | 16.90235 | 35013 ft | 442 kts | 160° |
| 2026-05-05 07:55 | 46.28652 | 16.93579 | 35005 ft | 443 kts | 160° |
| 2026-05-05 07:55 | 46.22906 | 16.96742 | 35012 ft | 440 kts | 167° |
| 2026-05-05 07:56 | 46.16999 | 16.99096 | 35015 ft | 441 kts | 167° |
| 2026-05-05 07:56 | 46.12088 | 17.01071 | 35019 ft | 441 kts | 167° |
| 2026-05-05 07:57 | 46.06179 | 17.03448 | 35009 ft | 441 kts | 167° |
| 2026-05-05 07:57 | 46.00260 | 17.05815 | 35018 ft | 442 kts | 167° |
| 2026-05-05 07:58 | 45.94337 | 17.08176 | 35021 ft | 442 kts | 167° |
| 2026-05-05 07:58 | 45.88407 | 17.10541 | 35011 ft | 442 kts | 167° |
| 2026-05-05 07:59 | 45.82478 | 17.12903 | 35018 ft | 442 kts | 167° |
| 2026-05-05 07:59 | 45.76543 | 17.15262 | 35018 ft | 443 kts | 167° |
| 2026-05-05 08:00 | 45.70606 | 17.17616 | 35017 ft | 443 kts | 167° |
| 2026-05-05 08:00 | 45.64664 | 17.19959 | 35017 ft | 443 kts | 167° |
| 2026-05-05 08:01 | 45.58718 | 17.22290 | 35021 ft | 443 kts | 167° |
| 2026-05-05 08:01 | 45.52766 | 17.24624 | 35022 ft | 444 kts | 167° |
| 2026-05-05 08:02 | 45.46814 | 17.26977 | 35027 ft | 444 kts | 167° |
| 2026-05-05 08:02 | 45.43836 | 17.28146 | 34896 ft | 444 kts | 167° |
| 2026-05-05 08:02 | 45.40858 | 17.29308 | 34651 ft | 444 kts | 167° |
| 2026-05-05 08:03 | 45.37875 | 17.30466 | 34410 ft | 445 kts | 167° |
| 2026-05-05 08:03 | 45.34891 | 17.31624 | 34170 ft | 445 kts | 167° |
| 2026-05-05 08:03 | 45.31903 | 17.32786 | 33919 ft | 446 kts | 167° |
| 2026-05-05 08:03 | 45.28909 | 17.33955 | 33645 ft | 446 kts | 167° |
| 2026-05-05 08:04 | 45.25911 | 17.35127 | 33311 ft | 446 kts | 167° |
| 2026-05-05 08:04 | 45.22934 | 17.36287 | 32687 ft | 443 kts | 167° |
| 2026-05-05 08:04 | 45.19975 | 17.37437 | 32084 ft | 439 kts | 167° |
| 2026-05-05 08:04 | 45.17031 | 17.38579 | 31480 ft | 437 kts | 167° |
| 2026-05-05 08:05 | 45.14108 | 17.39711 | 30894 ft | 435 kts | 167° |
| 2026-05-05 08:05 | 45.11205 | 17.40903 | 30309 ft | 434 kts | 166° |
| 2026-05-05 08:05 | 45.08334 | 17.42220 | 29662 ft | 432 kts | 164° |
| 2026-05-05 08:05 | 45.05502 | 17.43605 | 29090 ft | 429 kts | 163° |
| 2026-05-05 08:06 | 45.02705 | 17.45001 | 28510 ft | 425 kts | 163° |
| 2026-05-05 08:06 | 44.99930 | 17.46383 | 27932 ft | 421 kts | 163° |
| 2026-05-05 08:06 | 44.97177 | 17.47734 | 27378 ft | 417 kts | 163° |
| 2026-05-05 08:06 | 44.94447 | 17.49051 | 26845 ft | 413 kts | 163° |
| 2026-05-05 08:07 | 44.91738 | 17.50341 | 26313 ft | 409 kts | 163° |
| 2026-05-05 08:07 | 44.89050 | 17.51606 | 25804 ft | 405 kts | 163° |
| 2026-05-05 08:07 | 44.86391 | 17.52853 | 25301 ft | 401 kts | 163° |
| 2026-05-05 08:07 | 44.83753 | 17.54092 | 24810 ft | 397 kts | 163° |
| 2026-05-05 08:08 | 44.81143 | 17.55320 | 24330 ft | 394 kts | 163° |
| 2026-05-05 08:08 | 44.78558 | 17.56540 | 23830 ft | 390 kts | 163° |
| 2026-05-05 08:08 | 44.75990 | 17.57752 | 23283 ft | 388 kts | 163° |
| 2026-05-05 08:08 | 44.73451 | 17.58946 | 22782 ft | 384 kts | 163° |
| 2026-05-05 08:09 | 44.70930 | 17.60131 | 22290 ft | 380 kts | 163° |
| 2026-05-05 08:09 | 44.68433 | 17.61306 | 21778 ft | 377 kts | 163° |
| 2026-05-05 08:09 | 44.65958 | 17.62471 | 21294 ft | 374 kts | 163° |
| 2026-05-05 08:09 | 44.63496 | 17.63631 | 20764 ft | 372 kts | 163° |
| 2026-05-05 08:10 | 44.61050 | 17.64781 | 20261 ft | 370 kts | 163° |
| 2026-05-05 08:10 | 44.58619 | 17.65919 | 19750 ft | 368 kts | 163° |
| 2026-05-05 08:10 | 44.56206 | 17.67047 | 19246 ft | 366 kts | 164° |
| 2026-05-05 08:10 | 44.53800 | 17.68171 | 18749 ft | 364 kts | 163° |
| 2026-05-05 08:11 | 44.51396 | 17.69291 | 18238 ft | 363 kts | 163° |
| 2026-05-05 08:11 | 44.49008 | 17.70402 | 17707 ft | 361 kts | 163° |
| 2026-05-05 08:11 | 44.46637 | 17.71509 | 17218 ft | 357 kts | 163° |
| 2026-05-05 08:11 | 44.44289 | 17.72604 | 16745 ft | 354 kts | 163° |
| 2026-05-05 08:12 | 44.41959 | 17.73688 | 16270 ft | 352 kts | 163° |
| 2026-05-05 08:12 | 44.39643 | 17.74761 | 15796 ft | 349 kts | 163° |
| 2026-05-05 08:12 | 44.37352 | 17.75845 | 15333 ft | 347 kts | 160° |
| 2026-05-05 08:12 | 44.35181 | 17.77313 | 14867 ft | 346 kts | 154° |
| 2026-05-05 08:13 | 44.33054 | 17.78859 | 14396 ft | 344 kts | 154° |
| 2026-05-05 08:13 | 44.30941 | 17.80395 | 13928 ft | 342 kts | 154° |
| 2026-05-05 08:13 | 44.28840 | 17.81911 | 13415 ft | 339 kts | 154° |
| 2026-05-05 08:13 | 44.26751 | 17.83412 | 12951 ft | 336 kts | 154° |
| 2026-05-05 08:14 | 44.24709 | 17.84875 | 12496 ft | 332 kts | 154° |
| 2026-05-05 08:14 | 44.22633 | 17.86362 | 12011 ft | 330 kts | 154° |
| 2026-05-05 08:14 | 44.20631 | 17.87797 | 11544 ft | 327 kts | 154° |
| 2026-05-05 08:14 | 44.18616 | 17.89242 | 11094 ft | 325 kts | 154° |
| 2026-05-05 08:15 | 44.16612 | 17.90682 | 10603 ft | 323 kts | 154° |
| 2026-05-05 08:15 | 44.14626 | 17.92106 | 10257 ft | 316 kts | 154° |
| 2026-05-05 08:15 | 44.12709 | 17.93480 | 10136 ft | 303 kts | 155° |
| 2026-05-05 08:15 | 44.10874 | 17.94793 | 10014 ft | 291 kts | 155° |
| 2026-05-05 08:16 | 44.09113 | 17.96054 | 9879 ft | 278 kts | 155° |
| 2026-05-05 08:16 | 44.07423 | 17.97265 | 9384 ft | 271 kts | 155° |
| 2026-05-05 08:16 | 44.05757 | 17.98453 | 8828 ft | 265 kts | 155° |
| 2026-05-05 08:16 | 44.04143 | 17.99602 | 8443 ft | 259 kts | 155° |
| 2026-05-05 08:17 | 44.02539 | 18.00741 | 8093 ft | 259 kts | 155° |
| 2026-05-05 08:17 | 44.00872 | 18.01664 | 7733 ft | 258 kts | 162° |
| 2026-05-05 08:17 | 43.99176 | 18.02459 | 7382 ft | 258 kts | 162° |
| 2026-05-05 08:17 | 43.97484 | 18.03258 | 7029 ft | 256 kts | 162° |
| 2026-05-05 08:18 | 43.95798 | 18.04052 | 6674 ft | 252 kts | 162° |
| 2026-05-05 08:18 | 43.94179 | 18.04855 | 6318 ft | 243 kts | 156° |
| 2026-05-05 08:18 | 43.92812 | 18.06146 | 5982 ft | 235 kts | 137° |
| 2026-05-05 08:18 | 43.91853 | 18.07926 | 5659 ft | 229 kts | 121° |
| 2026-05-05 08:19 | 43.91141 | 18.09881 | 5352 ft | 226 kts | 120° |
| 2026-05-05 08:19 | 43.90424 | 18.11822 | 5021 ft | 226 kts | 120° |
| 2026-05-05 08:19 | 43.89707 | 18.13750 | 4688 ft | 224 kts | 119° |
| 2026-05-05 08:19 | 43.88994 | 18.15665 | 4365 ft | 223 kts | 118° |
| 2026-05-05 08:20 | 43.88288 | 18.17563 | 4061 ft | 217 kts | 117° |
| 2026-05-05 08:20 | 43.87610 | 18.19381 | 3784 ft | 207 kts | 117° |
| 2026-05-05 08:20 | 43.86974 | 18.21085 | 3504 ft | 192 kts | 118° |
| 2026-05-05 08:20 | 43.86395 | 18.22628 | 3268 ft | 175 kts | 119° |
| 2026-05-05 08:21 | 43.85864 | 18.24052 | 2988 ft | 160 kts | 120° |
| 2026-05-05 08:21 | 43.85376 | 18.25360 | 2777 ft | 148 kts | 121° |
| 2026-05-05 08:21 | 43.84917 | 18.26591 | 2552 ft | 141 kts | 121° |
| 2026-05-05 08:21 | 43.84470 | 18.27788 | 2369 ft | 139 kts | 120° |
| 2026-05-05 08:22 | 43.84025 | 18.28965 | 2155 ft | 136 kts | 121° |
| 2026-05-05 08:22 | 43.83595 | 18.30144 | 1927 ft | 137 kts | 120° |
| 2026-05-05 08:22 | 43.83151 | 18.31316 | 1765 ft | 137 kts | 119° |
| 2026-05-05 08:22 | 43.82722 | 18.32444 | 1680 ft | 119 kts | 118° |
| 2026-05-05 08:23 | 43.82495 | 18.33070 | 1686 ft | 24 kts | 98° |
| 2026-05-05 08:23 | 43.82521 | 18.33214 | 1683 ft | 14 kts | 73° |
| 2026-05-05 08:23 | 43.82547 | 18.33308 | 1686 ft | 10 kts | 69° |
| 2026-05-05 08:23 | 43.82543 | 18.33402 | 1686 ft | 10 kts | 115° |
| 2026-05-05 08:24 | 43.82513 | 18.33475 | 1686 ft | 10 kts | 118° |
| 2026-05-05 08:24 | 43.82501 | 18.33510 | 1686 ft | 3 kts | 108° |
| 2026-05-05 08:24 | 43.82519 | 18.33537 | 1692 ft | 6 kts | 30° |
| 2026-05-05 08:24 | 43.82551 | 18.33557 | 1686 ft | 4 kts | 27° |
| 2026-05-05 08:25 | 43.82558 | 18.33562 | 1688 ft | 0 kts | 29° |
| 2026-05-05 08:25 | 43.82560 | 18.33563 | 1688 ft | 0 kts | 29° |